Time;durP1;ratioP1;P1;durP2;ratioP2;P2;SDS_P1;SDS_P2;PMS_P1;PMS_P2;Temp;Humidity;BMP_temperature;BMP_pressure;BME280_temperature;BME280_humidity;BME280_pressure;Samples;Min_cycle;Max_cycle;Signal;HPM_P1;HPM_P2
2023/01/17 00:01:32;;;;;;;40.00;19.50;;;9.10;93.10;;;;;;5047105;28;20199;-78
2023/01/17 00:12:20;;;;;;;39.97;18.27;;;9.10;93.00;;;;;;5038417;28;20265;-77
2023/01/17 00:14:48;;;;;;;41.47;19.33;;;9.10;93.10;;;;;;5051202;28;20198;-77
2023/01/17 00:17:17;;;;;;;39.97;18.13;;;9.00;93.00;;;;;;5032595;28;20653;-77
2023/01/17 01:35:42;;;;;;;37.40;16.93;;;9.20;93.00;;;;;;5050222;28;20199;-76
2023/01/17 01:38:10;;;;;;;37.83;18.10;;;9.10;92.90;;;;;;5035789;28;21017;-77
2023/01/17 01:40:45;;;;;;;36.03;17.23;;;9.10;92.90;;;;;;5042160;28;20240;-77
2023/01/17 01:43:15;;;;;;;39.03;17.37;;;9.10;92.90;;;;;;5049863;28;20240;-76
2023/01/17 01:45:48;;;;;;;34.10;16.63;;;9.10;92.90;;;;;;5038967;28;20205;-77
2023/01/17 01:48:39;;;;;;;35.00;16.83;;;9.10;92.80;;;;;;5036325;28;20218;-76
2023/01/17 01:51:11;;;;;;;37.70;17.57;;;9.10;92.80;;;;;;5041635;28;20291;-77
2023/01/17 01:53:46;;;;;;;34.77;15.50;;;9.00;92.70;;;;;;5044202;28;20222;-76
2023/01/17 01:56:17;;;;;;;35.00;15.87;;;9.00;92.70;;;;;;5039841;28;20222;-76
2023/01/17 01:58:48;;;;;;;30.90;15.20;;;9.00;92.70;;;;;;5042127;28;20245;-78
2023/01/17 02:01:17;;;;;;;34.20;16.47;;;9.00;92.60;;;;;;5037804;28;20249;-76
2023/01/17 02:03:47;;;;;;;37.87;16.50;;;9.00;92.60;;;;;;5051621;28;20198;-77
2023/01/17 02:06:25;;;;;;;38.70;16.97;;;9.00;92.50;;;;;;5049702;28;20659;-77
2023/01/17 02:08:55;;;;;;;35.27;17.20;;;9.00;92.50;;;;;;5041745;28;20190;-77
2023/01/17 02:11:26;;;;;;;34.13;17.63;;;9.00;92.50;;;;;;5043777;28;20196;-77
2023/01/17 02:13:54;;;;;;;37.00;17.40;;;9.00;92.40;;;;;;5050308;28;21012;-76
2023/01/17 02:16:33;;;;;;;31.63;16.50;;;8.90;92.30;;;;;;5041526;28;20616;-77
2023/01/17 02:19:20;;;;;;;34.93;17.37;;;8.90;92.30;;;;;;5041239;28;20203;-78
2023/01/17 02:22:02;;;;;;;33.80;16.90;;;8.90;92.30;;;;;;5041581;28;20259;-77
2023/01/17 02:25:07;;;;;;;38.70;17.07;;;8.90;92.30;;;;;;5057535;28;20249;-76
2023/01/17 02:27:51;;;;;;;38.07;16.27;;;8.80;92.20;;;;;;5042241;28;20710;-78
2023/01/17 02:30:35;;;;;;;40.23;17.67;;;8.80;92.50;;;;;;5033391;28;20206;-76
2023/01/17 02:33:16;;;;;;;39.67;17.27;;;8.80;92.10;;;;;;5043681;28;20731;-77
2023/01/17 02:35:54;;;;;;;36.43;17.33;;;8.80;92.10;;;;;;5054039;28;20202;-77
2023/01/17 02:38:33;;;;;;;36.63;15.90;;;8.80;92.10;;;;;;5044548;28;20248;-76
2023/01/17 02:41:06;;;;;;;34.97;16.43;;;8.80;92.10;;;;;;5044402;28;20251;-79
2023/01/17 02:43:37;;;;;;;35.13;17.97;;;8.70;92.10;;;;;;5043191;28;20199;-76
2023/01/17 02:46:07;;;;;;;36.73;16.97;;;8.70;92.10;;;;;;5040572;28;20753;-76
2023/01/17 02:48:38;;;;;;;35.13;15.97;;;8.70;92.50;;;;;;5042253;28;20211;-78
2023/01/17 02:51:37;;;;;;;33.80;16.73;;;8.70;92.10;;;;;;5049095;28;20195;-78
2023/01/17 02:54:22;;;;;;;37.27;18.87;;;8.60;92.10;;;;;;5033510;28;20527;-78
2023/01/17 02:57:01;;;;;;;38.80;18.57;;;8.60;92.30;;;;;;5049989;28;20276;-77
2023/01/17 02:59:40;;;;;;;38.53;19.53;;;8.60;92.30;;;;;;5045024;28;20281;-76
2023/01/17 03:02:21;;;;;;;37.53;17.90;;;8.60;92.50;;;;;;5034393;28;20613;-77
2023/01/17 03:04:55;;;;;;;35.30;16.83;;;8.50;92.50;;;;;;5047212;28;20230;-77
2023/01/17 03:07:26;;;;;;;36.60;16.77;;;8.50;92.50;;;;;;5042664;28;20261;-76
2023/01/17 03:09:59;;;;;;;30.67;16.30;;;8.50;92.40;;;;;;5051186;28;20509;-76
2023/01/17 03:12:29;;;;;;;37.67;16.97;;;8.50;92.70;;;;;;5049317;28;20513;-76
2023/01/17 03:14:57;;;;;;;33.90;16.93;;;8.40;92.70;;;;;;5039968;28;20648;-77
2023/01/17 03:17:32;;;;;;;32.77;16.70;;;8.40;92.60;;;;;;5043974;28;20197;-76
2023/01/17 03:20:00;;;;;;;37.50;18.03;;;8.40;92.60;;;;;;5043484;28;20529;-76
2023/01/17 03:22:28;;;;;;;35.50;16.93;;;8.40;92.60;;;;;;5040119;28;20250;-78
2023/01/17 03:24:57;;;;;;;37.87;17.73;;;8.40;92.60;;;;;;5051041;28;20241;-76
2023/01/17 03:27:25;;;;;;;38.70;18.17;;;8.40;92.60;;;;;;5045472;28;20219;-77
2023/01/17 03:29:53;;;;;;;33.23;17.10;;;8.40;92.60;;;;;;5045351;28;20660;-76
2023/01/17 03:32:21;;;;;;;40.50;18.30;;;8.40;92.60;;;;;;5045578;28;20242;-76
2023/01/17 03:34:51;;;;;;;35.80;17.97;;;8.40;92.80;;;;;;5030857;28;20257;-77
2023/01/17 03:37:20;;;;;;;38.20;17.07;;;8.40;92.80;;;;;;5043275;28;20263;-77
2023/01/17 03:39:48;;;;;;;36.07;18.13;;;8.40;92.80;;;;;;5032193;28;20199;-77
2023/01/17 03:42:16;;;;;;;40.43;19.93;;;8.40;92.80;;;;;;5029418;28;20199;-77
2023/01/17 03:44:45;;;;;;;34.17;18.33;;;8.40;92.80;;;;;;5033686;28;20239;-77
2023/01/17 03:47:13;;;;;;;38.67;18.67;;;8.40;92.80;;;;;;5032793;28;21979;-77
2023/01/17 03:49:41;;;;;;;36.37;18.77;;;8.40;92.80;;;;;;5029954;28;20223;-77
2023/01/17 03:52:11;;;;;;;36.13;17.43;;;8.40;92.90;;;;;;5032571;28;20226;-76
2023/01/17 03:54:39;;;;;;;36.83;17.73;;;8.40;93.00;;;;;;5034456;28;20191;-76
2023/01/17 03:57:08;;;;;;;36.80;18.43;;;8.40;93.00;;;;;;5032335;28;20196;-76
2023/01/17 03:59:36;;;;;;;38.30;18.57;;;8.40;93.10;;;;;;5036664;28;20191;-76
2023/01/17 04:02:05;;;;;;;37.23;18.80;;;8.40;93.20;;;;;;5022132;28;20208;-76
2023/01/17 04:04:33;;;;;;;38.03;18.10;;;8.40;93.10;;;;;;5016304;28;20196;-77
2023/01/17 04:07:02;;;;;;;40.27;19.50;;;8.40;93.10;;;;;;5022197;28;20279;-76
2023/01/17 04:09:33;;;;;;;36.70;18.87;;;8.40;93.10;;;;;;5027469;28;21747;-77
2023/01/17 04:12:01;;;;;;;37.70;18.43;;;8.40;93.10;;;;;;5027553;28;20209;-77
2023/01/17 04:14:30;;;;;;;39.90;18.93;;;8.40;93.10;;;;;;5023706;28;20199;-77
2023/01/17 04:16:58;;;;;;;42.13;19.83;;;8.40;93.10;;;;;;5023152;28;20245;-77
2023/01/17 04:19:27;;;;;;;37.23;17.83;;;8.40;93.10;;;;;;5008214;28;20212;-77
2023/01/17 04:21:55;;;;;;;39.17;19.43;;;8.40;93.10;;;;;;5028796;28;20262;-76
2023/01/17 04:24:24;;;;;;;41.97;20.97;;;8.40;93.10;;;;;;5018733;28;20199;-76
2023/01/17 04:26:58;;;;;;;43.17;22.17;;;8.50;93.10;;;;;;5025262;28;20238;-77
2023/01/17 04:29:26;;;;;;;42.17;20.57;;;8.50;93.10;;;;;;5020307;28;20208;-76
2023/01/17 04:31:55;;;;;;;39.10;19.17;;;8.50;93.20;;;;;;5029833;28;20195;-76
2023/01/17 04:34:23;;;;;;;37.73;19.00;;;8.50;93.20;;;;;;5020732;28;20199;-77
2023/01/17 04:36:51;;;;;;;37.53;19.00;;;8.50;93.20;;;;;;5027479;28;20361;-77
2023/01/17 04:39:20;;;;;;;39.97;18.33;;;8.60;93.30;;;;;;5010736;28;20266;-76
2023/01/17 04:41:48;;;;;;;37.73;18.63;;;8.60;93.30;;;;;;5021930;28;20201;-77
2023/01/17 04:44:17;;;;;;;37.77;19.13;;;8.60;93.30;;;;;;5012936;28;21345;-76
2023/01/17 04:46:46;;;;;;;41.27;20.37;;;8.60;93.30;;;;;;5032510;28;20204;-76
2023/01/17 04:49:14;;;;;;;38.77;20.17;;;8.70;93.30;;;;;;5016950;28;20211;-76
2023/01/17 04:51:43;;;;;;;42.07;19.50;;;8.70;93.30;;;;;;5016697;28;20258;-76
2023/01/17 04:54:11;;;;;;;40.23;20.30;;;8.70;93.30;;;;;;5024577;28;20293;-76
2023/01/17 04:56:39;;;;;;;38.03;19.87;;;8.80;93.40;;;;;;5031311;28;20204;-77
2023/01/17 04:59:08;;;;;;;38.57;18.00;;;8.80;93.30;;;;;;5029899;28;20266;-76
2023/01/17 05:01:37;;;;;;;40.50;20.40;;;8.80;93.30;;;;;;5026090;28;20203;-77
2023/01/17 05:04:06;;;;;;;36.13;18.47;;;8.80;93.40;;;;;;5013412;28;20195;-77
2023/01/17 05:06:34;;;;;;;36.03;18.23;;;8.80;93.30;;;;;;5027310;28;20199;-77
2023/01/17 05:09:02;;;;;;;43.13;20.83;;;8.80;93.30;;;;;;5025952;28;20216;-77
2023/01/17 05:11:30;;;;;;;36.20;18.67;;;8.80;93.30;;;;;;5026117;28;20278;-76
2023/01/17 05:13:59;;;;;;;42.43;19.80;;;8.80;93.20;;;;;;5019297;28;20250;-76
2023/01/17 05:16:27;;;;;;;42.87;19.73;;;8.80;93.20;;;;;;5023076;28;20224;-76
2023/01/17 05:18:57;;;;;;;41.50;18.87;;;8.80;93.20;;;;;;5013572;28;20246;-77
2023/01/17 05:21:25;;;;;;;40.07;19.13;;;8.80;93.20;;;;;;5016611;28;20199;-76
2023/01/17 05:23:54;;;;;;;41.30;19.20;;;8.80;93.10;;;;;;5023712;28;20242;-77
2023/01/17 05:26:22;;;;;;;39.67;17.40;;;8.80;93.10;;;;;;5034195;28;20203;-76
2023/01/17 05:28:51;;;;;;;41.80;18.33;;;8.80;93.10;;;;;;5035562;28;20250;-76
2023/01/17 05:31:19;;;;;;;35.93;17.53;;;8.80;93.10;;;;;;5029785;28;21071;-76
2023/01/17 05:33:47;;;;;;;34.57;17.90;;;8.80;93.10;;;;;;5039194;28;20221;-76
2023/01/17 05:36:17;;;;;;;35.50;17.07;;;8.80;93.50;;;;;;5013175;28;20235;-77
2023/01/17 05:38:48;;;;;;;37.57;19.13;;;8.80;93.20;;;;;;5027658;28;20192;-76
2023/01/17 05:41:16;;;;;;;38.13;18.13;;;8.80;93.20;;;;;;5028544;28;20223;-76
2023/01/17 05:43:44;;;;;;;41.93;19.03;;;8.80;93.30;;;;;;5022407;28;20201;-76
2023/01/17 05:46:14;;;;;;;37.37;17.53;;;8.80;93.30;;;;;;5026884;28;20208;-76
2023/01/17 05:48:43;;;;;;;35.73;18.70;;;8.80;93.30;;;;;;5025703;28;20210;-76
2023/01/17 05:51:11;;;;;;;36.03;17.53;;;8.80;93.30;;;;;;5025533;28;20227;-77
2023/01/17 05:53:41;;;;;;;37.60;18.93;;;8.80;93.40;;;;;;5025525;28;20234;-75
2023/01/17 05:56:09;;;;;;;41.20;18.60;;;8.80;93.40;;;;;;5023036;28;20200;-76
2023/01/17 05:58:38;;;;;;;39.90;18.40;;;8.80;93.50;;;;;;5030373;28;20222;-77
2023/01/17 06:01:07;;;;;;;41.47;18.97;;;8.80;93.80;;;;;;5020986;28;20212;-77
2023/01/17 06:03:35;;;;;;;41.23;19.27;;;8.80;93.60;;;;;;5019412;28;20203;-76
2023/01/17 06:06:04;;;;;;;41.67;19.10;;;8.80;93.70;;;;;;5028607;28;20327;-75
2023/01/17 06:08:32;;;;;;;43.70;18.97;;;8.80;93.70;;;;;;5024957;28;20664;-77
2023/01/17 06:11:02;;;;;;;34.17;18.83;;;8.80;93.70;;;;;;5027074;28;20192;-77
2023/01/17 06:13:31;;;;;;;36.87;18.07;;;8.80;93.70;;;;;;5025337;28;20256;-76
2023/01/17 06:16:02;;;;;;;33.70;17.60;;;8.80;93.80;;;;;;5029667;28;20224;-76
2023/01/17 06:18:32;;;;;;;40.67;18.90;;;8.80;93.80;;;;;;5027906;28;20198;-76
2023/01/17 06:21:00;;;;;;;36.70;18.83;;;8.80;93.80;;;;;;5031339;28;20225;-76
2023/01/17 06:23:28;;;;;;;33.40;18.17;;;8.80;93.80;;;;;;5031653;28;20253;-76
2023/01/17 06:25:56;;;;;;;39.10;19.67;;;8.80;93.80;;;;;;5023306;28;21805;-76
2023/01/17 06:28:26;;;;;;;41.00;20.30;;;8.80;94.00;;;;;;5026924;28;20195;-77
2023/01/17 06:30:54;;;;;;;41.40;20.47;;;8.80;94.00;;;;;;5029198;28;20273;-76
2023/01/17 06:33:23;;;;;;;40.07;19.83;;;8.80;94.10;;;;;;5024042;28;20207;-77
2023/01/17 06:35:53;;;;;;;37.63;19.50;;;8.80;94.00;;;;;;5021645;28;20390;-77
2023/01/17 06:38:21;;;;;;;39.60;19.20;;;8.80;94.00;;;;;;5022591;28;20524;-77
2023/01/17 06:40:49;;;;;;;38.33;19.40;;;8.90;94.00;;;;;;5035093;28;20235;-76
2023/01/17 06:43:18;;;;;;;37.10;19.33;;;8.90;94.00;;;;;;5032969;28;20199;-76
2023/01/17 06:45:47;;;;;;;38.97;18.87;;;8.90;94.00;;;;;;5022887;28;20224;-77
2023/01/17 06:48:18;;;;;;;38.50;19.87;;;8.90;94.10;;;;;;5030865;28;20196;-77
2023/01/17 06:50:48;;;;;;;41.67;20.67;;;8.90;94.10;;;;;;5029688;28;20688;-76
2023/01/17 06:53:17;;;;;;;44.33;20.30;;;9.00;94.10;;;;;;5030187;28;20259;-77
2023/01/17 06:55:45;;;;;;;44.20;20.77;;;9.00;94.20;;;;;;5028622;28;20246;-77
2023/01/17 06:58:13;;;;;;;38.10;17.80;;;9.00;94.30;;;;;;5032266;28;20464;-76
2023/01/17 07:00:42;;;;;;;39.30;19.60;;;9.00;94.30;;;;;;5034156;28;20194;-76
2023/01/17 07:03:18;;;;;;;37.17;19.07;;;9.00;94.30;;;;;;5016051;28;20545;-77
2023/01/17 07:05:47;;;;;;;42.47;19.77;;;9.10;94.40;;;;;;5022158;28;20195;-75
2023/01/17 07:08:16;;;;;;;36.23;18.13;;;9.10;94.50;;;;;;5019065;28;20203;-76
2023/01/17 07:10:44;;;;;;;39.47;19.03;;;9.20;94.50;;;;;;5026981;28;20675;-75
2023/01/17 07:13:13;;;;;;;40.23;21.17;;;9.20;94.50;;;;;;5020108;28;20872;-78
2023/01/17 07:15:41;;;;;;;37.73;19.37;;;9.30;95.00;;;;;;5019865;28;20723;-76
2023/01/17 07:18:10;;;;;;;32.93;17.03;;;9.30;95.00;;;;;;5022382;28;20200;-76
2023/01/17 07:20:42;;;;;;;34.83;18.17;;;9.40;94.90;;;;;;5028154;28;20220;-78
2023/01/17 07:23:10;;;;;;;38.78;20.88;;;9.40;94.90;;;;;;5012844;28;20740;-76
2023/01/17 07:25:38;;;;;;;36.33;19.13;;;9.40;95.10;;;;;;5032756;28;20204;-77
2023/01/17 07:28:06;;;;;;;34.47;17.60;;;9.50;95.10;;;;;;5025125;28;20253;-77
2023/01/17 07:30:35;;;;;;;32.87;17.60;;;9.60;95.00;;;;;;5029742;28;20690;-77
2023/01/17 07:33:04;;;;;;;36.90;17.83;;;9.60;94.90;;;;;;5021447;28;20435;-77
2023/01/17 07:35:32;;;;;;;37.57;17.77;;;9.70;94.90;;;;;;5039231;28;20230;-76
2023/01/17 07:38:02;;;;;;;39.57;19.47;;;9.70;94.90;;;;;;5016975;28;20204;-77
2023/01/17 07:40:31;;;;;;;39.63;19.13;;;9.80;94.80;;;;;;5024385;28;20191;-76
2023/01/17 07:43:12;;;;;;;39.30;18.27;;;9.80;94.80;;;;;;5012767;28;20668;-76
2023/01/17 07:45:42;;;;;;;35.33;17.77;;;9.80;94.80;;;;;;5022162;28;20274;-77
2023/01/17 07:48:11;;;;;;;32.07;17.77;;;9.90;94.80;;;;;;5018294;28;20235;-77
2023/01/17 07:50:40;;;;;;;39.33;19.37;;;9.90;94.70;;;;;;5034600;28;20375;-78
2023/01/17 07:53:10;;;;;;;50.27;23.73;;;9.90;94.60;;;;;;5029800;28;20226;-79
2023/01/17 07:55:39;;;;;;;44.53;21.33;;;10.00;94.70;;;;;;5024795;28;20207;-77
2023/01/17 07:58:10;;;;;;;42.17;19.57;;;10.00;94.60;;;;;;5033448;28;20199;-77
2023/01/17 08:00:38;;;;;;;42.60;22.70;;;10.00;94.60;;;;;;5025091;28;20222;-77
2023/01/17 08:03:06;;;;;;;42.83;22.43;;;10.10;94.60;;;;;;5020945;28;20238;-77
2023/01/17 08:05:35;;;;;;;46.47;25.33;;;10.10;94.60;;;;;;5025491;28;20366;-79
2023/01/17 08:08:03;;;;;;;54.20;26.97;;;10.10;94.60;;;;;;5035034;28;20655;-79
2023/01/17 08:10:33;;;;;;;45.50;23.20;;;10.10;94.70;;;;;;5031150;28;20231;-77
2023/01/17 08:13:01;;;;;;;48.83;24.60;;;10.10;95.00;;;;;;5016416;28;20199;-78
2023/01/17 08:15:29;;;;;;;49.50;24.53;;;10.20;94.90;;;;;;5036726;28;20203;-78
2023/01/17 08:17:58;;;;;;;48.37;23.40;;;10.30;94.90;;;;;;5022648;28;20706;-77
2023/01/17 08:20:27;;;;;;;36.80;21.37;;;10.40;94.80;;;;;;5041913;28;20195;-78
2023/01/17 08:22:55;;;;;;;47.03;22.23;;;10.40;94.70;;;;;;5022693;28;20633;-77
2023/01/17 08:25:25;;;;;;;37.87;20.20;;;10.50;94.70;;;;;;5034716;28;20194;-79
2023/01/17 08:27:57;;;;;;;37.87;21.03;;;10.60;94.60;;;;;;5022340;28;20196;-78
2023/01/17 08:30:26;;;;;;;38.83;20.70;;;10.60;94.50;;;;;;5024123;28;20665;-77
2023/01/17 08:32:55;;;;;;;46.50;25.27;;;10.70;94.50;;;;;;5030498;28;20200;-77
2023/01/17 08:35:23;;;;;;;53.00;25.60;;;10.70;94.40;;;;;;5035964;28;20199;-79
2023/01/17 08:37:55;;;;;;;42.70;22.63;;;10.80;94.40;;;;;;5034561;28;20311;-78
2023/01/17 08:40:23;;;;;;;39.70;20.23;;;10.90;94.40;;;;;;5031742;28;20187;-77
2023/01/17 08:42:57;;;;;;;33.60;18.80;;;11.00;94.40;;;;;;5027255;28;20228;-79
2023/01/17 08:45:27;;;;;;;34.33;17.93;;;11.10;94.30;;;;;;5032012;28;20669;-78
2023/01/17 08:47:57;;;;;;;39.03;19.47;;;11.20;94.20;;;;;;5029053;28;20214;-80
2023/01/17 08:50:26;;;;;;;41.37;20.10;;;11.40;94.20;;;;;;5039833;28;20215;-79
2023/01/17 08:52:58;;;;;;;40.30;22.03;;;11.50;94.20;;;;;;5031162;28;20753;-76
2023/01/17 08:55:28;;;;;;;40.20;21.37;;;11.60;94.20;;;;;;5041699;28;20203;-76
2023/01/17 08:57:58;;;;;;;39.63;21.67;;;11.70;94.10;;;;;;5028375;28;20599;-77
2023/01/17 09:00:27;;;;;;;46.53;23.03;;;11.80;94.00;;;;;;5028801;28;20258;-76
2023/01/17 09:02:55;;;;;;;41.90;21.03;;;11.90;94.00;;;;;;5021902;28;20196;-77
2023/01/17 09:05:23;;;;;;;36.57;20.93;;;11.90;93.80;;;;;;5039693;28;20252;-76
2023/01/17 09:07:52;;;;;;;42.40;22.07;;;12.00;93.70;;;;;;5033001;28;20200;-76
2023/01/17 09:10:22;;;;;;;35.50;20.43;;;12.00;93.50;;;;;;5030801;28;20273;-77
2023/01/17 09:12:50;;;;;;;39.03;22.50;;;12.10;93.50;;;;;;5027393;28;20674;-77
2023/01/17 09:15:20;;;;;;;42.77;21.13;;;12.20;93.50;;;;;;5043188;28;20199;-78
2023/01/17 09:17:48;;;;;;;42.20;22.57;;;12.20;93.40;;;;;;5033714;28;20224;-76
2023/01/17 09:20:17;;;;;;;44.20;23.60;;;12.30;93.50;;;;;;5036253;28;20204;-77
2023/01/17 09:22:45;;;;;;;39.03;21.13;;;12.40;93.40;;;;;;5031958;28;20258;-76
2023/01/17 09:25:13;;;;;;;43.60;23.03;;;12.40;93.30;;;;;;5036479;28;20242;-77
2023/01/17 09:27:45;;;;;;;45.70;21.87;;;12.50;93.30;;;;;;5032512;28;20205;-76
2023/01/17 09:30:14;;;;;;;37.87;22.07;;;12.50;93.20;;;;;;5030211;28;20227;-76
2023/01/17 09:32:44;;;;;;;35.53;19.50;;;12.60;93.10;;;;;;5028044;28;20265;-76
2023/01/17 09:35:12;;;;;;;36.03;20.37;;;12.60;93.20;;;;;;5033031;28;20648;-78
2023/01/17 09:37:40;;;;;;;36.73;20.60;;;12.70;93.10;;;;;;5030228;28;20584;-77
2023/01/17 09:40:14;;;;;;;35.47;19.40;;;12.80;93.10;;;;;;5050972;28;20241;-77
2023/01/17 09:42:43;;;;;;;39.63;20.70;;;12.80;93.00;;;;;;5025882;28;20241;-78
2023/01/17 09:45:17;;;;;;;42.73;22.07;;;12.80;92.90;;;;;;5043575;28;20898;-79
2023/01/17 09:47:49;;;;;;;35.23;19.70;;;12.90;92.90;;;;;;5035468;28;20648;-80
2023/01/17 09:50:29;;;;;;;40.87;20.80;;;13.00;92.90;;;;;;5044337;28;20671;-79
2023/01/17 09:53:01;;;;;;;35.97;20.07;;;13.00;92.80;;;;;;5035763;28;20215;-80
2023/01/17 09:55:35;;;;;;;40.93;20.10;;;13.00;92.80;;;;;;5021295;28;20261;-79
2023/01/17 09:58:08;;;;;;;39.83;20.60;;;13.00;92.70;;;;;;5022202;28;20250;-76
2023/01/17 10:00:45;;;;;;;39.07;19.47;;;13.10;92.70;;;;;;5032336;28;20657;-79
2023/01/17 10:03:38;;;;;;;34.50;19.50;;;13.10;92.60;;;;;;5023163;28;20680;-79
2023/01/17 10:06:22;;;;;;;34.97;19.03;;;13.10;92.60;;;;;;5017450;28;20334;-80
2023/01/17 10:09:06;;;;;;;32.83;18.80;;;13.20;92.70;;;;;;5035109;28;20239;-79
2023/01/17 10:11:48;;;;;;;36.37;18.50;;;13.20;92.60;;;;;;5033787;28;20207;-79
2023/01/17 10:14:34;;;;;;;35.87;19.27;;;13.30;92.60;;;;;;5033450;28;20238;-79
2023/01/17 10:17:12;;;;;;;33.97;19.20;;;13.30;92.50;;;;;;5018140;28;20220;-78
2023/01/17 10:20:03;;;;;;;37.30;19.47;;;13.40;92.50;;;;;;5037234;28;20257;-78
2023/01/17 10:22:48;;;;;;;42.33;21.13;;;13.50;92.50;;;;;;5029725;28;20262;-77
2023/01/17 10:25:32;;;;;;;35.07;18.90;;;13.70;92.40;;;;;;5037940;28;20192;-78
2023/01/17 10:28:09;;;;;;;37.53;19.97;;;13.70;92.20;;;;;;5025484;28;20191;-79
2023/01/17 10:30:42;;;;;;;32.57;17.60;;;13.80;92.20;;;;;;5023116;28;20191;-78
2023/01/17 10:33:16;;;;;;;36.60;18.67;;;13.90;92.20;;;;;;5021245;28;20204;-77
2023/01/17 10:35:56;;;;;;;35.17;18.03;;;14.00;92.10;;;;;;5035797;28;20627;-78
2023/01/17 10:38:30;;;;;;;37.10;19.20;;;14.00;91.70;;;;;;5018605;28;20597;-78
2023/01/17 10:41:07;;;;;;;33.33;18.10;;;14.10;91.70;;;;;;5015273;28;20187;-77
2023/01/17 10:43:46;;;;;;;33.30;18.33;;;14.10;91.80;;;;;;5017893;28;20196;-78
2023/01/17 10:46:18;;;;;;;32.57;18.60;;;14.20;91.70;;;;;;5027707;28;20195;-77
2023/01/17 10:48:49;;;;;;;34.17;18.93;;;14.30;91.80;;;;;;5019503;28;20332;-77
2023/01/17 10:52:00;;;;;;;23.90;13.40;;;14.20;91.70;;;;;;5017738;28;20727;-75
2023/01/17 10:55:04;;;;;;;23.87;11.97;;;14.30;91.40;;;;;;4978984;28;20197;-78
2023/01/17 10:57:38;;;;;;;28.90;14.10;;;14.30;91.30;;;;;;4968063;28;20205;-79
2023/01/17 11:00:31;;;;;;;25.83;14.03;;;14.30;91.20;;;;;;5025096;28;20353;-78
2023/01/17 11:03:01;;;;;;;32.07;15.70;;;14.40;91.70;;;;;;5025121;28;20239;-78
2023/01/17 11:05:32;;;;;;;31.00;14.43;;;14.50;91.40;;;;;;5024571;28;20196;-78
2023/01/17 11:08:04;;;;;;;24.53;13.20;;;14.50;91.30;;;;;;5037833;28;20192;-78
2023/01/17 11:10:39;;;;;;;21.73;13.10;;;14.60;91.40;;;;;;5045745;28;20187;-79
2023/01/17 11:13:22;;;;;;;26.87;12.93;;;14.60;91.30;;;;;;5022309;28;20265;-78
2023/01/17 11:15:52;;;;;;;21.17;12.33;;;14.70;91.30;;;;;;5011888;28;20668;-79
2023/01/17 11:18:21;;;;;;;22.47;11.67;;;14.80;91.50;;;;;;5025923;28;20192;-78
2023/01/17 11:20:49;;;;;;;17.17;10.30;;;14.90;91.60;;;;;;5019255;28;20283;-78
2023/01/17 11:23:22;;;;;;;22.90;12.02;;;14.90;91.70;;;;;;5019374;28;20489;-78
2023/01/17 11:25:53;;;;;;;15.20;9.83;;;15.00;91.80;;;;;;5012118;28;20291;-79
2023/01/17 11:28:29;;;;;;;15.47;8.60;;;15.10;91.70;;;;;;5019710;28;20208;-79
2023/01/17 11:30:59;;;;;;;15.50;8.50;;;15.00;91.40;;;;;;5025537;28;20859;-79
2023/01/17 11:33:43;;;;;;;19.30;9.37;;;15.10;91.40;;;;;;5026783;28;20618;-79
2023/01/17 11:36:20;;;;;;;18.33;10.00;;;15.10;91.30;;;;;;5023338;28;20314;-79
2023/01/17 11:38:58;;;;;;;15.23;8.83;;;15.10;91.30;;;;;;5024151;28;20699;-80
2023/01/17 11:41:28;;;;;;;16.87;9.07;;;15.20;91.40;;;;;;5026361;28;20207;-78
2023/01/17 11:43:57;;;;;;;16.10;10.00;;;15.30;91.50;;;;;;5015824;28;20281;-78
2023/01/17 11:46:27;;;;;;;17.77;8.97;;;15.30;91.60;;;;;;5032928;28;20245;-78
2023/01/17 11:49:00;;;;;;;12.77;8.40;;;15.40;91.70;;;;;;5019756;28;20195;-79
2023/01/17 11:51:31;;;;;;;16.03;8.80;;;15.50;91.70;;;;;;5014380;28;20193;-79
2023/01/17 11:54:15;;;;;;;14.80;8.93;;;15.60;91.80;;;;;;5021577;28;20277;-79
2023/01/17 11:56:45;;;;;;;14.53;7.67;;;15.60;91.80;;;;;;5031769;28;20507;-79
2023/01/17 11:59:24;;;;;;;15.27;8.87;;;15.60;91.70;;;;;;5032975;28;20215;-79
2023/01/17 12:02:04;;;;;;;14.63;8.33;;;15.70;91.70;;;;;;5026344;28;20611;-79
2023/01/17 12:04:38;;;;;;;11.53;7.63;;;15.70;91.70;;;;;;5022331;28;20192;-79
2023/01/17 12:07:21;;;;;;;17.13;8.57;;;15.80;91.70;;;;;;5023479;28;20194;-78
2023/01/17 12:10:00;;;;;;;11.47;7.60;;;15.90;91.60;;;;;;5034708;28;20192;-79
2023/01/17 12:15:44;;;;;;;12.87;7.60;;;16.10;91.50;;;;;;5035488;28;20196;-79
2023/01/17 12:18:29;;;;;;;14.17;8.03;;;16.20;91.50;;;;;;5017628;28;20191;-79
2023/01/17 12:21:11;;;;;;;11.23;7.63;;;16.40;91.20;;;;;;5022709;28;20192;-79
2023/01/17 12:24:00;;;;;;;13.97;7.40;;;16.50;91.30;;;;;;5020598;28;20196;-78
2023/01/17 12:26:37;;;;;;;13.13;6.83;;;16.50;90.90;;;;;;5015215;28;20203;-79
2023/01/17 12:29:37;;;;;;;13.60;6.90;;;16.60;91.00;;;;;;5018743;28;20591;-79
2023/01/17 12:32:21;;;;;;;11.00;6.63;;;16.70;90.90;;;;;;5023940;28;20246;-78
2023/01/17 12:34:54;;;;;;;9.87;5.70;;;16.80;90.70;;;;;;5026462;28;20192;-79
2023/01/17 12:37:29;;;;;;;12.43;6.60;;;16.90;90.70;;;;;;5027950;28;20195;-79
2023/01/17 12:40:02;;;;;;;10.50;5.70;;;17.00;90.70;;;;;;5026589;28;20226;-79
2023/01/17 12:42:39;;;;;;;9.63;5.80;;;17.10;90.50;;;;;;5021960;28;20200;-78
2023/01/17 12:45:13;;;;;;;11.43;6.20;;;17.10;90.40;;;;;;5037999;28;20188;-79
2023/01/17 12:47:46;;;;;;;9.97;5.80;;;17.20;90.40;;;;;;5023823;28;20252;-79
2023/01/17 12:50:21;;;;;;;8.97;5.40;;;17.30;90.40;;;;;;5031973;28;20190;-78
2023/01/17 12:52:57;;;;;;;8.23;4.50;;;17.40;90.20;;;;;;5024383;28;20694;-78
2023/01/17 12:55:36;;;;;;;6.33;3.77;;;17.50;89.20;;;;;;5037780;28;20257;-80
2023/01/17 12:58:12;;;;;;;4.30;2.30;;;17.60;88.80;;;;;;5024846;28;21173;-78
2023/01/17 13:00:45;;;;;;;4.80;2.53;;;17.60;87.00;;;;;;5023144;28;20614;-81
2023/01/17 13:03:23;;;;;;;4.63;2.23;;;17.60;86.00;;;;;;5025166;28;20188;-79
2023/01/17 13:05:52;;;;;;;3.87;2.00;;;17.70;85.40;;;;;;5029513;28;20188;-79
2023/01/17 13:08:26;;;;;;;4.47;2.30;;;17.80;85.70;;;;;;5026590;28;20674;-79
2023/01/17 13:10:59;;;;;;;5.40;2.00;;;17.80;84.90;;;;;;5034878;28;20643;-79
2023/01/17 13:13:30;;;;;;;2.88;1.75;;;17.90;85.20;;;;;;5038606;28;20624;-78
2023/01/17 13:16:05;;;;;;;3.13;1.70;;;17.90;83.20;;;;;;5042388;28;20195;-77
2023/01/17 13:18:35;;;;;;;2.80;1.77;;;17.90;82.50;;;;;;5028265;28;20274;-78
2023/01/17 13:21:24;;;;;;;3.03;1.90;;;18.00;81.20;;;;;;5029950;28;20224;-78
2023/01/17 13:24:29;;;;;;;3.10;1.90;;;18.00;80.80;;;;;;5026274;28;20239;-79
2023/01/17 13:27:24;;;;;;;3.92;2.28;;;18.00;81.60;;;;;;5027050;28;20199;-79
2023/01/17 13:30:05;;;;;;;4.35;1.98;;;18.00;81.60;;;;;;5037264;28;20269;-80
2023/01/17 13:33:15;;;;;;;7.28;2.78;;;18.00;81.20;;;;;;5031676;28;20448;-78
2023/01/17 13:35:59;;;;;;;6.30;2.60;;;18.00;81.50;;;;;;4943752;28;20570;-77
2023/01/17 13:38:54;;;;;;;5.00;2.50;;;17.90;81.20;;;;;;4943700;29;20239;-78
2023/01/17 13:41:37;;;;;;;7.43;2.30;;;17.80;81.40;;;;;;5021984;28;20674;-78
2023/01/17 13:44:23;;;;;;;4.70;2.57;;;17.80;82.00;;;;;;5025539;28;20602;-78
2023/01/17 13:47:01;;;;;;;6.57;2.40;;;17.70;82.10;;;;;;5041697;28;20681;-75
2023/01/17 13:49:35;;;;;;;4.57;2.53;;;17.70;82.40;;;;;;5033224;28;20258;-79
2023/01/17 13:52:09;;;;;;;4.73;2.20;;;17.70;82.60;;;;;;5021910;28;20195;-78
2023/01/17 13:54:49;;;;;;;5.00;3.03;;;17.60;82.60;;;;;;5028209;28;20238;-78
2023/01/17 13:57:45;;;;;;;5.43;2.80;;;17.60;82.70;;;;;;5023373;28;20682;-78
2023/01/17 14:00:50;;;;;;;5.37;2.10;;;17.70;83.00;;;;;;5027985;28;20191;-77
2023/01/17 14:04:06;;;;;;;6.60;2.40;;;17.80;83.60;;;;;;5017828;28;20188;-78
2023/01/17 14:06:40;;;;;;;5.20;2.30;;;18.10;82.00;;;;;;4994225;28;20193;-79
2023/01/17 14:09:21;;;;;;;4.38;2.30;;;18.30;81.30;;;;;;4987587;28;20619;-78
2023/01/17 14:11:53;;;;;;;4.10;2.67;;;18.30;81.00;;;;;;5004623;28;20227;-78
2023/01/17 14:14:59;;;;;;;3.73;2.03;;;18.30;81.20;;;;;;5025411;28;20265;-79
2023/01/17 14:17:46;;;;;;;6.60;2.97;;;18.20;81.50;;;;;;5025409;28;20671;-78
2023/01/17 14:21:03;;;;;;;6.63;2.93;;;18.00;81.40;;;;;;5023490;28;20245;-78
2023/01/17 14:23:53;;;;;;;6.37;2.33;;;17.90;81.80;;;;;;5035358;28;20198;-78
2023/01/17 14:26:37;;;;;;;5.80;2.67;;;17.90;82.30;;;;;;5035076;28;20196;-78
2023/01/17 14:29:42;;;;;;;12.00;2.73;;;17.80;82.50;;;;;;5024030;28;20197;-78
2023/01/17 14:32:13;;;;;;;7.23;2.90;;;17.70;82.60;;;;;;5017837;28;20196;-77
2023/01/17 14:34:43;;;;;;;11.77;3.33;;;17.60;82.60;;;;;;5029493;28;20270;-77
2023/01/17 14:37:17;;;;;;;6.77;3.37;;;17.60;82.70;;;;;;5023952;28;20223;-78